Terminal Aerodrome Forecast
Issued by NWS

Home | Current Version | Previous Version | Text Only | Print | Product List | Glossary On
Versions: 1 2 3 4 5 6 7 8 9 10 11 12 13
000
FTUS46 KPDT 271100
TAFRDM
TAF
KRDM 271136Z 2712/2812 VRB04KT P6SM SKC
     FM272100 28008KT P6SM SCT080 BKN120
     FM280000 30012KT P6SM VCTS SCT060CB BKN080
     FM280300 30010G17KT P6SM -SHRA BKN040 OVC080
     FM280600 27012KT P6SM -SHRA BKN040 OVC080=

USA.gov is the U.S. government's official web portal to all federal, state and local government web resources and services.